La Chambordais — 9HA3584 — position and weather

sailwx.info

Track history (hours):
 
Tides and Currents Weather Stations Pressure Air Temp Water Temp Dewpoint Dewpoint Depression Visibility Wind Speed Wind Dir Waves Ship Positions

La Chambordais

Last reported at 2018-Feb-22 13:12 UTC. Time now 2018-Feb-24 02:40 UTC.
Position S 32°37' E 152°38'.

Length 180 m; draft 10.7 m.

Type: Cargo ship. MMSI: 229759000.

Date/timePositionNaut miles runAvg speedWind from/ knotsBaromVisibWave heightAir tempDewpointWater temp
2018-Feb-22 13:12S 32°37' E 152°38'2 9.8
2018-Feb-22 13:00S 32°38' E 152°36'5 9.8
2018-Feb-22 12:30S 32°41' E 152°32'5 9.6
2018-Feb-22 12:00S 32°44' E 152°27'5 9.4
2018-Feb-22 11:30S 32°47' E 152°23'5 9.2
2018-Feb-22 11:00S 32°50' E 152°19'4 8.9
2018-Feb-22 10:30S 32°53' E 152°15'4 8.2
2018-Feb-22 10:00S 32°55' E 152°10'4 8.5
2018-Feb-22 09:30S 32°56' E 152°06'4 8.2
2018-Feb-22 09:00S 32°57' E 152°01'4 8.3
2018-Feb-22 08:30S 32°57' E 151°56'5 8.3
2018-Feb-22 07:55S 32°57' E 151°50'3 5.6
2018-Feb-22 07:22S 32°55' E 151°47'1 2.8
2018-Feb-22 06:58S 32°54' E 151°46'0 0.0
2018-Feb-22 06:28S 32°54' E 151°46'0 0.0
2018-Feb-22 05:58S 32°54' E 151°46'0 0.0
2018-Feb-22 05:28S 32°54' E 151°46'0 0.0
2018-Feb-22 04:58S 32°54' E 151°46'0 0.0
2018-Feb-22 04:28S 32°54' E 151°46'0 0.0
2018-Feb-22 03:58S 32°54' E 151°46'0 0.0
2018-Feb-22 03:28S 32°54' E 151°46'0 0.0
2018-Feb-22 02:58S 32°54' E 151°46'0 0.0
2018-Feb-22 02:28S 32°54' E 151°46'0 0.0
2018-Feb-22 01:58S 32°54' E 151°46'0 0.0
2018-Feb-22 01:28S 32°54' E 151°46'0 0.0
2018-Feb-22 00:58S 32°54' E 151°46'0 0.0
2018-Feb-22 00:28S 32°54' E 151°46'0 0.0
2018-Feb-21 23:58S 32°54' E 151°46'0 0.0
2018-Feb-21 23:28S 32°54' E 151°46'0 0.0
2018-Feb-21 22:58S 32°54' E 151°46'0 0.0
2018-Feb-21 22:28S 32°54' E 151°46'0 0.0
2018-Feb-21 21:58S 32°54' E 151°46'0 0.0
2018-Feb-21 21:28S 32°54' E 151°46'0 0.0
2018-Feb-21 20:58S 32°54' E 151°46'0 0.0
2018-Feb-21 20:28S 32°54' E 151°46'0 0.0
2018-Feb-21 19:58S 32°54' E 151°46'0 0.0
2018-Feb-21 19:28S 32°54' E 151°46'0 0.0
2018-Feb-21 18:58S 32°54' E 151°46'0 0.0
2018-Feb-21 18:28S 32°54' E 151°46'0 0.0
2018-Feb-21 17:58S 32°54' E 151°46'0 0.0
2018-Feb-21 17:28S 32°54' E 151°46'0 0.0
2018-Feb-21 16:58S 32°54' E 151°46'0 0.0
2018-Feb-21 16:28S 32°54' E 151°46'0 0.0
2018-Feb-21 15:58S 32°54' E 151°46'0 0.0
2018-Feb-21 15:28S 32°54' E 151°46'0 0.0
2018-Feb-21 14:58S 32°54' E 151°46'0 0.0
2018-Feb-21 14:28S 32°54' E 151°46'0 0.0
2018-Feb-21 13:58S 32°54' E 151°46'0 0.0
2018-Feb-21 13:28S 32°54' E 151°46'0 0.0
2018-Feb-21 12:58S 32°54' E 151°46'0 0.0
2018-Feb-21 12:28S 32°54' E 151°46'0 0.0
2018-Feb-21 11:58S 32°54' E 151°46'0 0.0
2018-Feb-21 11:28S 32°54' E 151°46'0 0.0
2018-Feb-21 10:58S 32°54' E 151°46'0 0.0
2018-Feb-21 10:28S 32°54' E 151°46'0 0.0
2018-Feb-21 09:58S 32°54' E 151°46'0 0.0
2018-Feb-21 09:28S 32°54' E 151°46'0 0.0
2018-Feb-21 08:58S 32°54' E 151°46'0 0.0
2018-Feb-21 08:28S 32°54' E 151°46'0 0.0
2018-Feb-21 07:58S 32°54' E 151°46'0 0.0
2018-Feb-21 07:28S 32°54' E 151°46'0 0.0
2018-Feb-21 06:58S 32°54' E 151°46'0 0.0
2018-Feb-21 06:28S 32°54' E 151°46'0 0.3
2018-Feb-21 06:00S 32°54' E 151°46'1 2.0
2018-Feb-21 05:30S 32°55' E 151°47'4 7.2
2018-Feb-21 05:00S 32°57' E 151°50'4 8.9
2018-Feb-21 04:30S 33°01' E 151°53'4 8.0
2018-Feb-21 04:00S 33°05' E 151°53'16 2.8
2018-Feb-20 22:25S 33°19' E 151°45'13 0.9
2018-Feb-20 08:32S 33°13' E 151°58'6 0.6
2018-Feb-19 23:29S 33°08' E 151°55'2 4.4
2018-Feb-19 23:01S 33°06' E 151°54'2 3.0
2018-Feb-19 22:28S 33°08' E 151°55'4 1.5
2018-Feb-19 19:50S 33°11' E 151°53'3 5.8
2018-Feb-19 19:20S 33°11' E 151°50'2 2.2
2018-Feb-19 18:13S 33°13' E 151°50'13 1.7
2018-Feb-19 10:18S 33°01' E 151°57'412.8
2018-Feb-19 10:00S 32°58' E 151°59'612.4
2018-Feb-19 09:30S 32°56' E 152°06'713.6
2018-Feb-19 09:00S 32°55' E 152°14'613.0
2018-Feb-19 08:30S 32°53' E 152°21'612.4
2018-Feb-19 08:01S 32°48' E 152°26'612.3
2018-Feb-19 07:31S 32°44' E 152°32'611.8
2018-Feb-19 07:00S 32°40' E 152°36'612.3
2018-Feb-19 06:30S 32°36' E 152°42'4512.3
2018-Feb-19 02:49S 31°53' E 153°02'512.8
2018-Feb-19 02:24S 31°48' E 153°04'613.7
2018-Feb-19 01:58S 31°43' E 153°07'613.8
2018-Feb-19 01:30S 31°37' E 153°09'714.0
2018-Feb-19 01:00S 31°30' E 153°12'20613.4
2018-Feb-18 09:40S 28°12' E 154°14'213.4
2018-Feb-18 09:30S 28°10' E 154°14'2912.9
2018-Feb-18 07:14S 27°40' E 154°14'412.7
2018-Feb-18 06:54S 27°36' E 154°14'  
2018-Feb-15 13:53S 22°22' E 165°53'512.5
2018-Feb-15 13:31S 22°23' E 165°58'612.7
2018-Feb-15 13:01S 22°23' E 166°05'612.8
2018-Feb-15 12:31S 22°23' E 166°12'  
Track history (hours):
 
Tides and Currents Weather Stations Pressure Air Temp Water Temp Dewpoint Dewpoint Depression Visibility Wind Speed Wind Dir Waves Ship Positions

La Chambordais

Last reported at 2018-Feb-22 13:12 UTC. Time now 2018-Feb-24 02:40 UTC.
Position S 32°37' E 152°38'.

Length 180 m; draft 10.7 m.

Type: Cargo ship. MMSI: 229759000.

Date/timePositionNaut miles runAvg speedWind from/ knotsBaromVisibWave heightAir tempDewpointWater temp
2018-Feb-22 13:12S 32°37' E 152°38'2 9.8
2018-Feb-22 13:00S 32°38' E 152°36'5 9.8
2018-Feb-22 12:30S 32°41' E 152°32'5 9.6
2018-Feb-22 12:00S 32°44' E 152°27'5 9.4
2018-Feb-22 11:30S 32°47' E 152°23'5 9.2
2018-Feb-22 11:00S 32°50' E 152°19'4 8.9
2018-Feb-22 10:30S 32°53' E 152°15'4 8.2
2018-Feb-22 10:00S 32°55' E 152°10'4 8.5
2018-Feb-22 09:30S 32°56' E 152°06'4 8.2
2018-Feb-22 09:00S 32°57' E 152°01'4 8.3
2018-Feb-22 08:30S 32°57' E 151°56'5 8.3
2018-Feb-22 07:55S 32°57' E 151°50'3 5.6
2018-Feb-22 07:22S 32°55' E 151°47'1 2.8
2018-Feb-22 06:58S 32°54' E 151°46'0 0.0
2018-Feb-22 06:28S 32°54' E 151°46'0 0.0
2018-Feb-22 05:58S 32°54' E 151°46'0 0.0
2018-Feb-22 05:28S 32°54' E 151°46'0 0.0
2018-Feb-22 04:58S 32°54' E 151°46'0 0.0
2018-Feb-22 04:28S 32°54' E 151°46'0 0.0
2018-Feb-22 03:58S 32°54' E 151°46'0 0.0
2018-Feb-22 03:28S 32°54' E 151°46'0 0.0
2018-Feb-22 02:58S 32°54' E 151°46'0 0.0
2018-Feb-22 02:28S 32°54' E 151°46'0 0.0
2018-Feb-22 01:58S 32°54' E 151°46'0 0.0
2018-Feb-22 01:28S 32°54' E 151°46'0 0.0
2018-Feb-22 00:58S 32°54' E 151°46'0 0.0
2018-Feb-22 00:28S 32°54' E 151°46'0 0.0
2018-Feb-21 23:58S 32°54' E 151°46'0 0.0
2018-Feb-21 23:28S 32°54' E 151°46'0 0.0
2018-Feb-21 22:58S 32°54' E 151°46'0 0.0
2018-Feb-21 22:28S 32°54' E 151°46'0 0.0
2018-Feb-21 21:58S 32°54' E 151°46'0 0.0
2018-Feb-21 21:28S 32°54' E 151°46'0 0.0
2018-Feb-21 20:58S 32°54' E 151°46'0 0.0
2018-Feb-21 20:28S 32°54' E 151°46'0 0.0
2018-Feb-21 19:58S 32°54' E 151°46'0 0.0
2018-Feb-21 19:28S 32°54' E 151°46'0 0.0
2018-Feb-21 18:58S 32°54' E 151°46'0 0.0
2018-Feb-21 18:28S 32°54' E 151°46'0 0.0
2018-Feb-21 17:58S 32°54' E 151°46'0 0.0
2018-Feb-21 17:28S 32°54' E 151°46'0 0.0
2018-Feb-21 16:58S 32°54' E 151°46'0 0.0
2018-Feb-21 16:28S 32°54' E 151°46'0 0.0
2018-Feb-21 15:58S 32°54' E 151°46'0 0.0
2018-Feb-21 15:28S 32°54' E 151°46'0 0.0
2018-Feb-21 14:58S 32°54' E 151°46'0 0.0
2018-Feb-21 14:28S 32°54' E 151°46'0 0.0
2018-Feb-21 13:58S 32°54' E 151°46'0 0.0
2018-Feb-21 13:28S 32°54' E 151°46'0 0.0
2018-Feb-21 12:58S 32°54' E 151°46'0 0.0
2018-Feb-21 12:28S 32°54' E 151°46'0 0.0
2018-Feb-21 11:58S 32°54' E 151°46'0 0.0
2018-Feb-21 11:28S 32°54' E 151°46'0 0.0
2018-Feb-21 10:58S 32°54' E 151°46'0 0.0
2018-Feb-21 10:28S 32°54' E 151°46'0 0.0
2018-Feb-21 09:58S 32°54' E 151°46'0 0.0
2018-Feb-21 09:28S 32°54' E 151°46'0 0.0
2018-Feb-21 08:58S 32°54' E 151°46'0 0.0
2018-Feb-21 08:28S 32°54' E 151°46'0 0.0
2018-Feb-21 07:58S 32°54' E 151°46'0 0.0
2018-Feb-21 07:28S 32°54' E 151°46'0 0.0
2018-Feb-21 06:58S 32°54' E 151°46'0 0.0
2018-Feb-21 06:28S 32°54' E 151°46'0 0.3
2018-Feb-21 06:00S 32°54' E 151°46'1 2.0
2018-Feb-21 05:30S 32°55' E 151°47'4 7.2
2018-Feb-21 05:00S 32°57' E 151°50'4 8.9
2018-Feb-21 04:30S 33°01' E 151°53'4 8.0
2018-Feb-21 04:00S 33°05' E 151°53'16 2.8
2018-Feb-20 22:25S 33°19' E 151°45'13 0.9
2018-Feb-20 08:32S 33°13' E 151°58'6 0.6
2018-Feb-19 23:29S 33°08' E 151°55'2 4.4
2018-Feb-19 23:01S 33°06' E 151°54'2 3.0
2018-Feb-19 22:28S 33°08' E 151°55'4 1.5
2018-Feb-19 19:50S 33°11' E 151°53'3 5.8
2018-Feb-19 19:20S 33°11' E 151°50'2 2.2
2018-Feb-19 18:13S 33°13' E 151°50'13 1.7
2018-Feb-19 10:18S 33°01' E 151°57'412.8
2018-Feb-19 10:00S 32°58' E 151°59'612.4
2018-Feb-19 09:30S 32°56' E 152°06'713.6
2018-Feb-19 09:00S 32°55' E 152°14'613.0
2018-Feb-19 08:30S 32°53' E 152°21'612.4
2018-Feb-19 08:01S 32°48' E 152°26'612.3
2018-Feb-19 07:31S 32°44' E 152°32'611.8
2018-Feb-19 07:00S 32°40' E 152°36'612.3
2018-Feb-19 06:30S 32°36' E 152°42'4512.3
2018-Feb-19 02:49S 31°53' E 153°02'512.8
2018-Feb-19 02:24S 31°48' E 153°04'613.7
2018-Feb-19 01:58S 31°43' E 153°07'613.8
2018-Feb-19 01:30S 31°37' E 153°09'714.0
2018-Feb-19 01:00S 31°30' E 153°12'20613.4
2018-Feb-18 09:40S 28°12' E 154°14'213.4
2018-Feb-18 09:30S 28°10' E 154°14'2912.9
2018-Feb-18 07:14S 27°40' E 154°14'412.7
2018-Feb-18 06:54S 27°36' E 154°14'  
2018-Feb-15 13:53S 22°22' E 165°53'512.5
2018-Feb-15 13:31S 22°23' E 165°58'612.7
2018-Feb-15 13:01S 22°23' E 166°05'612.8
2018-Feb-15 12:31S 22°23' E 166°12'  

Dump ship's entire track history